createdAt,value
2019-06-25T00:00:09.159Z,4.37
2019-06-25T00:02:35.978Z,5.10
2019-06-25T00:05:03.289Z,4.03
2019-06-25T00:07:30.014Z,4.83
2019-06-25T00:09:56.645Z,4.67
2019-06-25T00:12:23.504Z,4.80
2019-06-25T00:14:50.411Z,4.17
2019-06-25T00:17:17.048Z,4.90
2019-06-25T00:19:43.680Z,5.00
2019-06-25T00:22:10.486Z,4.80
2019-06-25T00:24:37.144Z,5.90
2019-06-25T00:27:04.117Z,6.03
2019-06-25T00:29:30.797Z,7.53
2019-06-25T00:31:57.534Z,5.47
2019-06-25T00:34:24.211Z,6.20
2019-06-25T00:36:50.927Z,5.60
2019-06-25T00:39:17.619Z,5.00
2019-06-25T00:41:44.238Z,5.07
2019-06-25T00:44:10.886Z,5.40
2019-06-25T00:46:37.567Z,5.10
2019-06-25T00:49:04.311Z,4.97
2019-06-25T00:51:31.068Z,4.83
2019-06-25T00:53:57.681Z,5.27
2019-06-25T00:56:24.413Z,5.90
2019-06-25T00:58:51.339Z,5.70
2019-06-25T01:01:17.952Z,5.07
2019-06-25T01:03:45.535Z,5.40
2019-06-25T01:06:12.237Z,6.30
2019-06-25T01:08:39.005Z,4.90
2019-06-25T01:11:05.643Z,5.30
2019-06-25T01:13:32.275Z,5.07
2019-06-25T01:15:58.961Z,4.77
2019-06-25T01:18:25.534Z,4.90
2019-06-25T01:20:52.799Z,5.10
2019-06-25T01:23:19.492Z,5.10
2019-06-25T01:25:46.076Z,4.70
2019-06-25T01:28:12.763Z,5.50
2019-06-25T01:30:39.602Z,5.10
2019-06-25T01:33:06.442Z,4.90
2019-06-25T01:35:33.197Z,5.90
2019-06-25T01:38:00.272Z,4.70
2019-06-25T01:40:26.851Z,5.40
2019-06-25T01:42:54.232Z,4.90
2019-06-25T01:45:20.848Z,5.20
2019-06-25T01:47:47.523Z,5.00
2019-06-25T01:50:14.880Z,5.17
2019-06-25T01:52:41.588Z,5.90
2019-06-25T01:55:08.697Z,9.10
2019-06-25T01:57:35.787Z,9.23
2019-06-25T02:00:04.308Z,13.20
2019-06-25T02:02:30.896Z,13.63
2019-06-25T02:04:57.847Z,14.17
2019-06-25T02:07:24.541Z,16.87
2019-06-25T02:09:51.603Z,16.27
2019-06-25T02:12:18.657Z,19.10
2019-06-25T02:14:45.341Z,22.30
2019-06-25T02:17:12.097Z,21.47
2019-06-25T02:19:39.161Z,23.17
2019-06-25T02:22:05.881Z,22.10
2019-06-25T02:24:32.520Z,22.10
2019-06-25T02:26:59.429Z,22.10
2019-06-25T02:29:26.152Z,23.43
2019-06-25T02:31:53.983Z,26.43
2019-06-25T02:34:20.799Z,24.10
2019-06-25T02:36:47.513Z,23.67
2019-06-25T02:39:14.222Z,23.97
2019-06-25T02:41:40.937Z,23.37
2019-06-25T02:44:07.645Z,24.00
2019-06-25T02:46:35.952Z,23.70
2019-06-25T02:49:02.773Z,21.50
2019-06-25T02:51:29.580Z,21.40
2019-06-25T02:53:56.518Z,16.80
2019-06-25T02:56:23.234Z,15.70
2019-06-25T02:58:50.077Z,14.40
2019-06-25T03:01:28.546Z,14.17
2019-06-25T03:03:45.762Z,12.60
2019-06-25T03:06:12.493Z,12.57
2019-06-25T03:08:39.377Z,11.70
2019-06-25T03:11:06.068Z,11.00
2019-06-25T03:13:32.988Z,10.37
2019-06-25T03:16:00.242Z,10.13
2019-06-25T03:18:26.957Z,10.07
2019-06-25T03:20:54.004Z,9.97
2019-06-25T03:23:20.585Z,10.20
2019-06-25T03:25:47.334Z,9.10
2019-06-25T03:28:14.326Z,9.40
2019-06-25T03:30:41.301Z,9.60
2019-06-25T03:33:08.006Z,8.37
2019-06-25T03:35:34.822Z,8.23
2019-06-25T03:38:01.442Z,9.30
2019-06-25T03:40:28.256Z,8.47
2019-06-25T03:42:55.044Z,7.73
2019-06-25T03:45:21.624Z,7.83
2019-06-25T03:47:48.600Z,7.80
2019-06-25T03:50:16.467Z,8.00
2019-06-25T03:52:43.072Z,7.77
2019-06-25T03:55:10.171Z,7.20
2019-06-25T03:57:37.096Z,7.57
2019-06-25T04:00:04.465Z,7.13
2019-06-25T04:02:31.068Z,7.50
2019-06-25T04:04:57.740Z,8.27
2019-06-25T04:07:24.344Z,7.20
2019-06-25T04:09:51.239Z,7.90
2019-06-25T04:12:18.052Z,7.20
2019-06-25T04:14:44.666Z,7.70
2019-06-25T04:17:11.238Z,7.53
2019-06-25T04:19:37.911Z,7.60
2019-06-25T04:22:04.524Z,7.10
2019-06-25T04:24:31.125Z,7.27
2019-06-25T04:26:57.938Z,8.93
2019-06-25T04:29:24.707Z,6.90
2019-06-25T04:31:51.577Z,7.70
2019-06-25T04:34:18.268Z,7.20
2019-06-25T04:36:44.911Z,7.50
2019-06-25T04:39:11.836Z,7.03
2019-06-25T04:41:38.574Z,7.17
2019-06-25T04:44:05.398Z,7.07
2019-06-25T04:46:32.230Z,7.40
2019-06-25T04:48:58.915Z,7.00
2019-06-25T04:51:25.614Z,6.93
2019-06-25T04:53:52.256Z,7.07
2019-06-25T04:56:18.882Z,6.90
2019-06-25T04:58:45.624Z,7.30
2019-06-25T05:01:12.347Z,7.60
2019-06-25T05:03:38.925Z,7.60
2019-06-25T05:06:05.659Z,7.53
2019-06-25T05:08:32.293Z,7.87
2019-06-25T05:10:58.941Z,8.10
2019-06-25T05:13:25.613Z,7.77
2019-06-25T05:15:53.158Z,8.00
2019-06-25T05:18:21.011Z,7.93
2019-06-25T05:20:47.580Z,8.80
2019-06-25T05:23:15.889Z,8.20
2019-06-25T05:25:43.221Z,8.10
2019-06-25T05:28:09.835Z,8.33
2019-06-25T05:30:36.595Z,9.20
2019-06-25T05:33:05.710Z,8.60
2019-06-25T05:35:32.361Z,8.70
2019-06-25T05:37:59.171Z,9.00
2019-06-25T05:40:26.044Z,8.70
2019-06-25T05:42:52.643Z,9.30
2019-06-25T05:45:20.909Z,9.70
2019-06-25T05:47:47.717Z,9.33
2019-06-25T05:50:16.449Z,8.67
2019-06-25T05:52:43.356Z,9.10
2019-06-25T05:55:10.436Z,9.10
2019-06-25T05:57:37.073Z,9.13
2019-06-25T06:00:05.433Z,9.93
2019-06-25T06:02:32.185Z,9.77
2019-06-25T06:04:58.796Z,9.63
2019-06-25T06:07:25.395Z,9.93
2019-06-25T06:09:52.472Z,10.10
2019-06-25T06:12:19.365Z,8.77
2019-06-25T06:14:46.029Z,10.30
2019-06-25T06:17:12.775Z,9.10
2019-06-25T06:19:39.545Z,9.90
2019-06-25T06:22:06.245Z,9.83
2019-06-25T06:24:32.959Z,8.73
2019-06-25T06:26:59.578Z,8.37
2019-06-25T06:29:26.171Z,7.90
2019-06-25T06:31:53.063Z,8.40
2019-06-25T06:34:19.655Z,8.40
2019-06-25T06:36:46.289Z,8.23
2019-06-25T06:39:13.690Z,8.40
2019-06-25T06:41:40.500Z,8.03
2019-06-25T06:44:07.121Z,8.27
2019-06-25T06:46:33.800Z,7.77
2019-06-25T06:49:00.649Z,10.23
2019-06-25T06:51:27.371Z,16.10
2019-06-25T06:53:54.852Z,11.17
2019-06-25T06:56:21.680Z,15.17
2019-06-25T06:58:48.431Z,13.03
2019-06-25T07:01:15.185Z,8.53
2019-06-25T07:03:52.348Z,8.10
2019-06-25T07:06:10.558Z,11.80
2019-06-25T07:08:37.349Z,10.97
2019-06-25T07:11:04.252Z,6.73
2019-06-25T07:13:32.928Z,10.43
2019-06-25T07:15:59.896Z,11.03
2019-06-25T07:18:26.689Z,7.20
2019-06-25T07:20:53.699Z,7.00
2019-06-25T07:23:20.522Z,6.77
2019-06-25T07:25:47.185Z,6.90
2019-06-25T07:28:13.961Z,7.07
2019-06-25T07:30:40.954Z,7.40
2019-06-25T07:33:07.682Z,6.80
2019-06-25T07:35:34.405Z,6.70
2019-06-25T07:38:01.146Z,7.07
2019-06-25T07:40:28.196Z,6.57
2019-06-25T07:42:55.175Z,6.90
2019-06-25T07:45:22.350Z,6.30
2019-06-25T07:47:49.169Z,6.77
2019-06-25T07:50:16.808Z,6.83
2019-06-25T07:52:43.524Z,6.80
2019-06-25T07:55:10.734Z,6.07
2019-06-25T07:57:37.590Z,6.43
2019-06-25T08:00:04.958Z,5.77
2019-06-25T08:02:31.566Z,6.50
2019-06-25T08:04:58.168Z,6.57
2019-06-25T08:07:24.797Z,6.83
2019-06-25T08:09:51.791Z,5.70
2019-06-25T08:12:18.473Z,5.40
2019-06-25T08:14:45.217Z,5.20
2019-06-25T08:17:11.840Z,5.37
2019-06-25T08:19:38.841Z,5.50
2019-06-25T08:22:05.542Z,6.50
2019-06-25T08:24:32.144Z,6.20
2019-06-25T08:26:58.901Z,6.00
2019-06-25T08:29:25.505Z,5.63
2019-06-25T08:31:52.083Z,5.73
2019-06-25T08:34:18.790Z,5.63
2019-06-25T08:36:45.541Z,5.87
2019-06-25T08:39:12.287Z,5.70
2019-06-25T08:41:38.900Z,5.63
2019-06-25T08:44:05.485Z,6.17
2019-06-25T08:46:32.063Z,5.63
2019-06-25T08:48:58.986Z,5.97
2019-06-25T08:51:25.712Z,5.63
2019-06-25T08:53:52.696Z,6.50
2019-06-25T08:56:19.337Z,6.37
2019-06-25T08:58:45.971Z,6.60
2019-06-25T09:01:12.597Z,6.20
2019-06-25T09:03:39.234Z,6.07
2019-06-25T09:06:05.948Z,7.57
2019-06-25T09:08:32.575Z,6.97
2019-06-25T09:10:59.368Z,7.80
2019-06-25T09:13:26.055Z,8.70
2019-06-25T09:15:52.693Z,6.97
2019-06-25T09:18:19.275Z,7.90
2019-06-25T09:20:46.122Z,7.27
2019-06-25T09:23:12.720Z,6.73
2019-06-25T09:25:39.362Z,6.90
2019-06-25T09:28:06.094Z,5.77
2019-06-25T09:30:36.609Z,4.90
2019-06-25T09:33:01.317Z,4.90
2019-06-25T09:35:28.049Z,5.00
2019-06-25T09:37:54.849Z,5.27
2019-06-25T09:40:20.954Z,5.70
2019-06-25T09:42:47.157Z,5.20
2019-06-25T09:45:13.657Z,5.30
2019-06-25T09:47:45.194Z,4.43
2019-06-25T09:50:10.024Z,4.17
2019-06-25T09:52:36.901Z,3.90
2019-06-25T09:55:04.330Z,4.40
2019-06-25T09:57:30.976Z,3.93
2019-06-25T09:59:57.721Z,3.80
2019-06-25T10:02:24.369Z,3.50
2019-06-25T10:04:50.980Z,3.60
2019-06-25T10:07:17.841Z,3.63
2019-06-25T10:09:44.545Z,4.83
2019-06-25T10:12:11.361Z,4.47
2019-06-25T10:14:38.083Z,3.70
2019-06-25T10:17:07.151Z,4.70
2019-06-25T10:19:33.757Z,3.30
2019-06-25T10:22:00.496Z,3.17
2019-06-25T10:24:27.193Z,3.57
2019-06-25T10:26:54.151Z,4.20
2019-06-25T10:29:21.010Z,3.90
2019-06-25T10:31:48.078Z,3.80
2019-06-25T10:34:14.691Z,3.80
2019-06-25T10:36:41.444Z,3.03
2019-06-25T10:39:08.168Z,2.90
2019-06-25T10:41:34.807Z,4.10
2019-06-25T10:44:01.569Z,3.63
2019-06-25T10:46:28.301Z,3.00
2019-06-25T10:48:54.948Z,2.90
2019-06-25T10:51:21.564Z,3.00
2019-06-25T10:53:48.275Z,2.70
2019-06-25T10:56:14.968Z,4.10
2019-06-25T10:58:42.533Z,3.43
2019-06-25T11:01:09.489Z,5.00
2019-06-25T11:03:36.092Z,3.90
2019-06-25T11:06:06.328Z,3.70
2019-06-25T11:08:31.652Z,2.57
2019-06-25T11:10:58.254Z,4.50
2019-06-25T11:13:25.088Z,2.90
2019-06-25T11:15:51.917Z,3.13
2019-06-25T11:18:18.583Z,3.47
2019-06-25T11:20:45.201Z,3.43
2019-06-25T11:23:12.515Z,3.27
2019-06-25T11:25:39.116Z,3.30
2019-06-25T11:28:05.798Z,3.40
2019-06-25T11:30:32.406Z,2.97
2019-06-25T11:32:59.032Z,3.93
2019-06-25T11:35:25.785Z,3.97
2019-06-25T11:37:52.544Z,3.30
2019-06-25T11:40:26.373Z,3.77
2019-06-25T11:42:53.229Z,3.40
2019-06-25T11:45:20.106Z,3.60
2019-06-25T11:47:46.773Z,3.33
2019-06-25T11:50:13.804Z,4.13
2019-06-25T11:52:40.510Z,4.03
2019-06-25T11:55:07.689Z,3.53
2019-06-25T11:57:34.536Z,3.03
2019-06-25T12:00:01.627Z,3.13
2019-06-25T12:02:28.730Z,4.10
2019-06-25T12:04:55.496Z,3.70
2019-06-25T12:07:22.132Z,4.50
2019-06-25T12:09:48.718Z,3.43
2019-06-25T12:12:15.331Z,4.20
2019-06-25T12:14:41.944Z,4.43
2019-06-25T12:17:09.003Z,3.83
2019-06-25T12:19:47.962Z,3.73
2019-06-25T12:22:04.271Z,3.90
2019-06-25T12:24:31.013Z,5.10
2019-06-25T12:26:57.998Z,4.73
2019-06-25T12:29:24.640Z,4.53
2019-06-25T12:31:51.317Z,3.83
2019-06-25T12:34:17.964Z,4.00
2019-06-25T12:36:44.676Z,3.70
2019-06-25T12:39:11.325Z,4.00
2019-06-25T12:41:38.144Z,4.20
2019-06-25T12:44:04.773Z,3.63
2019-06-25T12:46:31.383Z,4.60
2019-06-25T12:48:57.994Z,5.00
2019-06-25T12:51:24.710Z,4.97
2019-06-25T12:53:51.357Z,4.23
2019-06-25T12:56:17.943Z,4.50
2019-06-25T12:58:45.398Z,4.93
2019-06-25T13:01:12.163Z,4.20
2019-06-25T13:03:39.232Z,4.57
2019-06-25T13:06:05.924Z,5.00
2019-06-25T13:08:32.517Z,4.60
2019-06-25T13:10:59.148Z,4.93
2019-06-25T13:13:25.865Z,5.07
2019-06-25T13:15:52.472Z,4.97
2019-06-25T13:18:19.193Z,5.70
2019-06-25T13:20:45.848Z,5.60
2019-06-25T13:23:12.801Z,5.00
2019-06-25T13:25:39.665Z,5.60
2019-06-25T13:28:06.388Z,5.10
2019-06-25T13:30:33.121Z,6.30
2019-06-25T13:32:59.784Z,6.10
2019-06-25T13:35:26.529Z,5.50
2019-06-25T13:37:53.228Z,5.83
2019-06-25T13:40:20.161Z,5.63
2019-06-25T13:42:46.845Z,5.53
2019-06-25T13:45:14.371Z,5.60
2019-06-25T13:47:41.065Z,5.50
2019-06-25T13:50:08.499Z,5.90
2019-06-25T13:52:35.449Z,5.60
2019-06-25T13:55:02.465Z,5.60
2019-06-25T13:57:29.124Z,6.73
2019-06-25T13:59:55.826Z,5.67
2019-06-25T14:02:22.468Z,7.13
2019-06-25T14:04:49.107Z,6.63
2019-06-25T14:07:15.753Z,6.27
2019-06-25T14:09:42.351Z,6.60
2019-06-25T14:12:08.972Z,6.27
2019-06-25T14:14:35.882Z,6.37
2019-06-25T14:17:02.492Z,6.43
2019-06-25T14:19:29.171Z,6.00
2019-06-25T14:21:55.847Z,6.73
2019-06-25T14:24:22.441Z,6.37
2019-06-25T14:26:49.321Z,6.80
2019-06-25T14:29:15.896Z,6.63
2019-06-25T14:31:42.517Z,7.10
2019-06-25T14:34:09.228Z,7.00
2019-06-25T14:36:35.855Z,7.10
2019-06-25T14:39:04.797Z,7.90
2019-06-25T14:41:31.405Z,8.33
2019-06-25T14:43:58.037Z,9.33
2019-06-25T14:46:24.617Z,7.83
2019-06-25T14:48:51.207Z,8.37
2019-06-25T14:51:17.799Z,8.40
2019-06-25T14:53:44.548Z,9.30
2019-06-25T14:56:11.193Z,11.37
2019-06-25T14:58:38.006Z,10.10
2019-06-25T15:01:04.576Z,9.43
2019-06-25T15:03:31.313Z,11.20
2019-06-25T15:05:57.981Z,9.73
2019-06-25T15:08:31.211Z,11.20
2019-06-25T15:10:53.184Z,9.80
2019-06-25T15:13:19.769Z,10.03
2019-06-25T15:15:46.445Z,10.00
2019-06-25T15:18:13.070Z,9.70
2019-06-25T15:20:40.044Z,10.10
2019-06-25T15:23:06.657Z,10.70
2019-06-25T15:25:33.281Z,10.80
2019-06-25T15:27:59.897Z,10.67
2019-06-25T15:30:30.521Z,10.90
2019-06-25T15:32:57.186Z,10.30
2019-06-25T15:35:23.853Z,11.23
2019-06-25T15:37:50.909Z,9.43
2019-06-25T15:40:18.172Z,10.70
2019-06-25T15:42:44.808Z,10.43
2019-06-25T15:45:11.640Z,10.33
2019-06-25T15:47:38.290Z,9.10
2019-06-25T15:50:05.305Z,8.70
2019-06-25T15:52:32.024Z,8.40
2019-06-25T15:54:58.840Z,8.67
2019-06-25T15:57:25.699Z,9.90
2019-06-25T15:59:52.276Z,8.80
2019-06-25T16:02:18.975Z,8.07
2019-06-25T16:04:45.979Z,7.83
2019-06-25T16:07:12.623Z,6.93
2019-06-25T16:09:39.264Z,6.40
2019-06-25T16:12:05.889Z,11.53
2019-06-25T16:14:32.586Z,7.10
2019-06-25T16:16:59.265Z,6.70
2019-06-25T16:19:25.883Z,6.70
2019-06-25T16:21:52.727Z,6.73
2019-06-25T16:24:19.456Z,6.60
2019-06-25T16:26:46.065Z,7.00
2019-06-25T16:29:12.671Z,7.13
2019-06-25T16:31:39.445Z,7.33
2019-06-25T16:34:06.044Z,7.00
2019-06-25T16:36:32.791Z,7.17
2019-06-25T16:38:59.455Z,7.40
2019-06-25T16:41:26.164Z,7.67
2019-06-25T16:43:52.851Z,6.40
2019-06-25T16:46:19.592Z,7.40
2019-06-25T16:48:46.349Z,6.03
2019-06-25T16:51:13.115Z,7.27
2019-06-25T16:53:39.759Z,7.30
2019-06-25T16:56:06.335Z,6.97
2019-06-25T16:58:35.573Z,7.60
2019-06-25T17:01:01.552Z,6.67
2019-06-25T17:03:28.197Z,6.40
2019-06-25T17:05:55.399Z,5.93
2019-06-25T17:08:22.033Z,6.70
2019-06-25T17:10:48.628Z,7.10
2019-06-25T17:13:15.373Z,5.47
2019-06-25T17:15:43.128Z,6.83
2019-06-25T17:18:10.270Z,7.47
2019-06-25T17:20:36.855Z,7.30
2019-06-25T17:23:08.080Z,6.10
2019-06-25T17:25:32.106Z,6.60
2019-06-25T17:27:59.060Z,6.20
2019-06-25T17:30:26.002Z,6.20
2019-06-25T17:32:52.651Z,5.10
2019-06-25T17:35:19.340Z,5.60
2019-06-25T17:37:46.161Z,5.57
2019-06-25T17:40:13.760Z,5.47
2019-06-25T17:42:40.404Z,5.60
2019-06-25T17:45:07.520Z,5.40
2019-06-25T17:47:34.214Z,4.97
2019-06-25T17:50:00.899Z,4.63
2019-06-25T17:52:27.630Z,5.10
2019-06-25T17:54:54.226Z,4.90
2019-06-25T17:57:21.305Z,5.40
2019-06-25T17:59:48.260Z,5.23
2019-06-25T18:02:15.001Z,4.70
2019-06-25T18:04:42.120Z,5.80
2019-06-25T18:07:08.932Z,4.83
2019-06-25T18:09:40.577Z,5.40
2019-06-25T18:12:04.072Z,5.00
2019-06-25T18:14:30.823Z,5.40
2019-06-25T18:16:58.386Z,5.87
2019-06-25T18:19:25.181Z,5.67
2019-06-25T18:21:51.852Z,4.90
2019-06-25T18:24:18.764Z,6.07
2019-06-25T18:26:45.340Z,5.20
2019-06-25T18:29:11.937Z,5.73
2019-06-25T18:31:39.045Z,5.40
2019-06-25T18:34:05.775Z,5.50
2019-06-25T18:36:32.521Z,5.43
2019-06-25T18:38:59.258Z,5.63
2019-06-25T18:41:26.180Z,6.07
2019-06-25T18:43:52.921Z,6.90
2019-06-25T18:46:19.663Z,7.43
2019-06-25T18:48:46.602Z,6.10
2019-06-25T18:51:13.356Z,6.70
2019-06-25T18:53:40.078Z,7.60
2019-06-25T18:56:06.740Z,6.50
2019-06-25T18:58:33.348Z,6.73
2019-06-25T19:00:59.934Z,7.33
2019-06-25T19:03:26.607Z,9.60
2019-06-25T19:05:53.346Z,7.70
2019-06-25T19:08:20.050Z,9.53
2019-06-25T19:10:47.047Z,10.20
2019-06-25T19:13:13.680Z,10.00
2019-06-25T19:15:40.388Z,10.60
2019-06-25T19:18:07.501Z,10.70
2019-06-25T19:20:34.571Z,11.07
2019-06-25T19:23:01.463Z,12.43
2019-06-25T19:25:28.056Z,13.00
2019-06-25T19:27:54.741Z,13.27
2019-06-25T19:30:21.561Z,13.40
2019-06-25T19:32:48.438Z,9.73
2019-06-25T19:35:15.348Z,14.43
2019-06-25T19:37:45.049Z,15.03
2019-06-25T19:40:11.723Z,16.33
2019-06-25T19:42:38.457Z,15.57
2019-06-25T19:45:05.709Z,15.20
2019-06-25T19:47:48.797Z,11.57
2019-06-25T19:50:15.611Z,16.43
2019-06-25T19:52:29.788Z,16.10
2019-06-25T19:54:56.530Z,11.70
2019-06-25T19:57:23.576Z,17.33
2019-06-25T19:59:50.533Z,14.07
2019-06-25T20:02:17.344Z,16.20
2019-06-25T20:04:44.043Z,16.30
2019-06-25T20:07:11.158Z,17.50
2019-06-25T20:09:38.479Z,14.00
2019-06-25T20:12:05.830Z,15.07
2019-06-25T20:14:32.416Z,11.97
2019-06-25T20:16:59.075Z,13.73
2019-06-25T20:19:25.716Z,13.23
2019-06-25T20:21:52.661Z,13.07
2019-06-25T20:24:19.589Z,14.00
2019-06-25T20:26:46.241Z,12.80
2019-06-25T20:29:12.917Z,18.00
2019-06-25T20:31:39.726Z,18.60
2019-06-25T20:34:06.628Z,15.50
2019-06-25T20:36:33.415Z,13.10
2019-06-25T20:39:00.292Z,11.60
2019-06-25T20:41:28.959Z,12.70
2019-06-25T20:43:55.624Z,13.77
2019-06-25T20:46:22.412Z,13.10
2019-06-25T20:48:49.153Z,11.53
2019-06-25T20:51:16.058Z,13.40
2019-06-25T20:53:42.785Z,13.30
2019-06-25T20:56:09.541Z,11.33
2019-06-25T20:58:36.260Z,9.93
2019-06-25T21:01:02.865Z,10.53
2019-06-25T21:03:29.820Z,10.50
2019-06-25T21:05:56.505Z,11.77
2019-06-25T21:08:23.179Z,10.10
2019-06-25T21:10:49.897Z,9.37
2019-06-25T21:13:16.841Z,10.80
2019-06-25T21:15:43.529Z,10.43
2019-06-25T21:18:10.176Z,11.70
2019-06-25T21:20:38.127Z,12.40
2019-06-25T21:23:04.875Z,12.00
2019-06-25T21:25:31.563Z,10.60
2019-06-25T21:27:58.290Z,14.80
2019-06-25T21:30:25.423Z,12.47
2019-06-25T21:32:52.229Z,12.87
2019-06-25T21:35:19.057Z,10.43
2019-06-25T21:37:45.684Z,10.83
2019-06-25T21:40:12.984Z,10.33
2019-06-25T21:42:39.651Z,10.93
2019-06-25T21:45:07.263Z,10.10
2019-06-25T21:47:33.975Z,10.53
2019-06-25T21:50:00.593Z,10.93
2019-06-25T21:52:27.436Z,12.37
2019-06-25T21:54:54.183Z,11.57
2019-06-25T21:57:20.856Z,10.70
2019-06-25T21:59:47.495Z,11.57
2019-06-25T22:02:17.044Z,12.03
2019-06-25T22:04:43.775Z,13.00
2019-06-25T22:07:10.367Z,10.83
2019-06-25T22:09:37.220Z,10.57
2019-06-25T22:12:17.192Z,11.87
2019-06-25T22:14:33.421Z,10.63
2019-06-25T22:17:00.220Z,10.80
2019-06-25T22:19:27.296Z,11.90
2019-06-25T22:21:54.282Z,12.23
2019-06-25T22:24:21.070Z,12.97
2019-06-25T22:26:50.481Z,11.83
2019-06-25T22:29:16.353Z,11.20
2019-06-25T22:31:43.087Z,11.30
2019-06-25T22:34:09.872Z,12.07
2019-06-25T22:36:36.656Z,10.47
2019-06-25T22:39:05.620Z,11.87
2019-06-25T22:41:32.520Z,13.10
2019-06-25T22:43:59.509Z,13.23
2019-06-25T22:46:26.216Z,14.70
2019-06-25T22:48:52.920Z,20.20
2019-06-25T22:51:19.928Z,15.13
2019-06-25T22:53:46.917Z,12.90
2019-06-25T22:56:13.740Z,14.10
2019-06-25T22:58:41.052Z,20.60
2019-06-25T23:01:08.131Z,13.70
2019-06-25T23:03:34.880Z,13.67
2019-06-25T23:06:01.733Z,12.70
2019-06-25T23:08:28.521Z,16.10
2019-06-25T23:10:55.219Z,18.43
2019-06-25T23:13:22.386Z,18.90
2019-06-25T23:15:49.006Z,20.53
2019-06-25T23:18:15.607Z,16.73
2019-06-25T23:20:42.335Z,16.27
2019-06-25T23:23:09.058Z,23.50
2019-06-25T23:25:35.770Z,20.27
2019-06-25T23:28:02.781Z,20.77
2019-06-25T23:30:29.425Z,18.00
2019-06-25T23:32:56.137Z,14.17
2019-06-25T23:35:22.744Z,19.60
2019-06-25T23:37:49.505Z,17.07
2019-06-25T23:40:16.267Z,16.47
2019-06-25T23:42:42.910Z,15.93
2019-06-25T23:45:09.946Z,18.90
2019-06-25T23:47:36.606Z,15.70
2019-06-25T23:50:04.046Z,15.10
2019-06-25T23:52:30.864Z,16.20
2019-06-25T23:54:57.845Z,18.27
2019-06-25T23:57:24.751Z,12.57
2019-06-25T23:59:51.942Z,12.97
